Time;durP1;ratioP1;P1;durP2;ratioP2;P2;SDS_P1;SDS_P2;PMS_P1;PMS_P2;Temp;Humidity;BMP_temperature;BMP_pressure;BME280_temperature;BME280_humidity;BME280_pressure;Samples;Min_cycle;Max_cycle;Signal;HPM_P1;HPM_P2
2022/02/12 00:00:26;;;;;;;9.07;3.90;;;-0.60;99.90;;;;;;5066540;28;20200;-49
2022/02/12 00:02:54;;;;;;;7.53;3.97;;;-0.60;99.90;;;;;;5056833;28;20695;-54
2022/02/12 00:05:24;;;;;;;12.07;4.10;;;-0.50;99.90;;;;;;5065068;28;20277;-49
2022/02/12 00:07:52;;;;;;;10.63;3.83;;;-0.60;99.90;;;;;;5063618;28;20228;-47
2022/02/12 00:10:20;;;;;;;10.07;3.80;;;-0.60;99.90;;;;;;5046730;28;20219;-53
2022/02/12 00:12:47;;;;;;;13.60;4.10;;;-0.60;99.90;;;;;;5060631;28;20197;-50
2022/02/12 00:15:15;;;;;;;7.90;3.80;;;-0.60;99.90;;;;;;5065311;28;20228;-52
2022/02/12 00:17:43;;;;;;;8.10;4.07;;;-0.70;99.90;;;;;;5054346;28;20600;-50
2022/02/12 00:20:11;;;;;;;9.77;4.00;;;-0.70;99.90;;;;;;5059852;28;20213;-50
2022/02/12 00:22:39;;;;;;;5.93;3.70;;;-0.70;99.90;;;;;;5059123;28;20979;-46
2022/02/12 00:25:08;;;;;;;9.90;4.20;;;-0.80;99.90;;;;;;5063001;28;20250;-48
2022/02/12 00:27:34;;;;;;;9.07;4.10;;;-0.80;99.90;;;;;;5043375;28;20228;-45
2022/02/12 00:30:01;;;;;;;10.07;3.73;;;-0.70;99.90;;;;;;5063058;28;20567;-49
2022/02/12 00:32:28;;;;;;;7.63;4.30;;;-0.70;99.90;;;;;;5055621;28;20214;-51
2022/02/12 00:34:55;;;;;;;8.83;4.07;;;-0.70;99.90;;;;;;5064641;28;20681;-48
2022/02/12 00:37:22;;;;;;;9.20;3.63;;;-0.70;99.90;;;;;;5062087;28;20243;-50
2022/02/12 00:39:50;;;;;;;9.00;4.10;;;-0.70;99.90;;;;;;5064189;28;20841;-46
2022/02/12 00:42:18;;;;;;;11.03;4.17;;;-0.70;99.90;;;;;;5051493;28;20213;-47
2022/02/12 00:44:45;;;;;;;9.90;4.77;;;-0.70;99.90;;;;;;5053214;28;20285;-44
2022/02/12 00:47:11;;;;;;;9.17;4.43;;;-0.70;99.90;;;;;;5068068;28;20191;-46
2022/02/12 00:49:38;;;;;;;9.13;4.57;;;-0.60;99.90;;;;;;5059031;28;20302;-48
2022/02/12 00:52:06;;;;;;;9.67;3.83;;;-0.50;99.90;;;;;;5069693;28;20238;-46
2022/02/12 00:54:33;;;;;;;8.80;4.27;;;-0.50;99.90;;;;;;5065944;28;20884;-46
2022/02/12 00:57:01;;;;;;;11.33;4.07;;;-0.50;99.90;;;;;;5047355;28;20618;-46
2022/02/12 00:59:28;;;;;;;12.10;4.00;;;-0.50;99.90;;;;;;5063245;28;20231;-51
2022/02/12 01:01:55;;;;;;;10.50;3.73;;;-0.50;99.90;;;;;;5066233;28;20210;-47
2022/02/12 01:04:22;;;;;;;10.60;4.10;;;-0.50;99.90;;;;;;5059421;28;20208;-48
2022/02/12 01:06:49;;;;;;;8.80;4.33;;;-0.40;99.90;;;;;;5062405;28;20900;-47
2022/02/12 01:09:16;;;;;;;6.17;3.83;;;-0.40;99.90;;;;;;5065780;28;20215;-46
2022/02/12 01:11:43;;;;;;;10.17;4.13;;;-0.40;99.90;;;;;;5063600;28;20228;-45
2022/02/12 01:14:12;;;;;;;8.37;3.77;;;-0.40;99.90;;;;;;5051230;28;20213;-47
2022/02/12 01:16:39;;;;;;;13.10;3.93;;;-0.40;99.90;;;;;;5061329;28;20875;-47
2022/02/12 01:19:05;;;;;;;7.90;3.87;;;-0.40;99.90;;;;;;5063537;28;20227;-45
2022/02/12 01:21:32;;;;;;;8.77;3.70;;;-0.30;99.90;;;;;;5063425;28;20325;-45
2022/02/12 01:23:59;;;;;;;12.50;3.93;;;-0.40;99.90;;;;;;5067698;28;20203;-47
2022/02/12 01:26:26;;;;;;;8.93;3.50;;;-0.40;99.90;;;;;;5066761;28;20189;-48
2022/02/12 01:28:52;;;;;;;8.67;3.73;;;-0.40;99.90;;;;;;5046929;28;20231;-50
2022/02/12 01:31:21;;;;;;;6.57;3.37;;;-0.40;99.90;;;;;;5064567;28;20223;-51
2022/02/12 01:33:48;;;;;;;10.40;3.67;;;-0.40;99.90;;;;;;5067253;28;20226;-47
2022/02/12 01:36:15;;;;;;;10.20;3.97;;;-0.40;99.90;;;;;;5064810;28;20216;-47
2022/02/12 01:38:41;;;;;;;12.27;3.43;;;-0.30;99.90;;;;;;5072320;28;20211;-51
2022/02/12 01:41:08;;;;;;;8.13;2.77;;;-0.30;99.90;;;;;;5073396;28;20215;-48
2022/02/12 01:43:35;;;;;;;7.33;2.80;;;-0.30;99.90;;;;;;5046673;28;20205;-49
2022/02/12 01:46:02;;;;;;;6.60;3.00;;;-0.30;99.90;;;;;;5065425;28;20533;-51
2022/02/12 01:48:30;;;;;;;6.07;2.90;;;-0.30;99.90;;;;;;5059064;28;20574;-47
2022/02/12 01:50:57;;;;;;;7.63;2.93;;;-0.30;99.90;;;;;;5067706;28;20581;-45
2022/02/12 01:53:25;;;;;;;7.50;3.10;;;-0.30;99.90;;;;;;5068177;28;20662;-49
2022/02/12 01:55:54;;;;;;;8.80;2.63;;;-0.30;99.90;;;;;;5065458;28;20236;-45
2022/02/12 01:58:21;;;;;;;11.10;3.10;;;-0.30;99.90;;;;;;5061240;28;20225;-47
2022/02/12 02:00:48;;;;;;;4.70;2.60;;;-0.30;99.90;;;;;;5048844;28;20287;-45
2022/02/12 02:03:15;;;;;;;6.80;2.87;;;-0.20;99.90;;;;;;5065289;28;20216;-50
2022/02/12 02:05:45;;;;;;;8.10;3.20;;;-0.30;99.90;;;;;;5064279;28;20211;-46
2022/02/12 02:08:12;;;;;;;7.67;2.73;;;-0.30;99.90;;;;;;5064749;28;20232;-47
2022/02/12 02:10:39;;;;;;;9.07;3.57;;;-0.30;99.90;;;;;;5064585;28;20201;-49
2022/02/12 02:13:06;;;;;;;6.90;2.83;;;-0.40;99.90;;;;;;5069960;28;20205;-44
2022/02/12 02:15:32;;;;;;;5.20;2.70;;;-0.30;99.90;;;;;;5046898;28;20516;-47
2022/02/12 02:17:59;;;;;;;13.77;2.83;;;-0.30;99.90;;;;;;5064663;28;20789;-51
2022/02/12 02:20:26;;;;;;;8.67;2.97;;;-0.30;99.90;;;;;;5065582;28;20286;-48
2022/02/12 02:22:56;;;;;;;6.10;2.73;;;-0.30;99.90;;;;;;5062828;28;20209;-45
2022/02/12 02:25:23;;;;;;;13.47;2.80;;;-0.40;99.90;;;;;;5063001;28;20196;-49
2022/02/12 02:27:50;;;;;;;8.90;2.97;;;-0.40;99.90;;;;;;5063382;28;20225;-47
2022/02/12 02:30:19;;;;;;;6.70;2.50;;;-0.50;99.90;;;;;;5053276;28;20679;-51
2022/02/12 02:32:46;;;;;;;8.30;2.33;;;-0.50;99.90;;;;;;5064553;28;20212;-45
2022/02/12 02:35:16;;;;;;;8.33;2.93;;;-0.60;99.90;;;;;;5069774;28;20204;-47
2022/02/12 02:37:46;;;;;;;6.67;2.97;;;-0.60;99.90;;;;;;5067393;28;20256;-46
2022/02/12 02:40:16;;;;;;;6.20;2.93;;;-0.60;99.90;;;;;;5064458;28;20200;-45
2022/02/12 02:42:43;;;;;;;8.10;2.73;;;-0.60;99.90;;;;;;5068454;28;20203;-45
2022/02/12 02:45:11;;;;;;;13.43;3.90;;;-0.60;99.90;;;;;;5062413;28;20196;-48
2022/02/12 02:47:42;;;;;;;8.40;3.83;;;-0.60;99.90;;;;;;5045642;28;20209;-49
2022/02/12 02:56:02;;;;;;;11.77;5.13;;;-0.70;99.90;;;;;;5055648;28;20211;-50
2022/02/12 02:58:34;;;;;;;11.23;5.10;;;-0.80;99.90;;;;;;5057918;28;20229;-51
2022/02/12 03:01:02;;;;;;;8.60;4.60;;;-0.80;99.90;;;;;;5050798;28;20211;-47
2022/02/12 03:03:29;;;;;;;13.30;5.10;;;-0.80;99.90;;;;;;5061537;28;20207;-49
2022/02/12 03:05:57;;;;;;;10.73;5.30;;;-0.70;99.90;;;;;;5062736;28;20610;-46
2022/02/12 03:08:23;;;;;;;10.33;5.50;;;-0.70;99.90;;;;;;5058616;28;20223;-47
2022/02/12 03:10:52;;;;;;;12.07;5.60;;;-0.70;99.90;;;;;;5065105;28;20196;-46
2022/02/12 03:13:18;;;;;;;8.17;5.27;;;-0.80;99.90;;;;;;5065228;28;20207;-47
2022/02/12 03:15:46;;;;;;;10.00;5.93;;;-0.80;99.90;;;;;;5064102;28;20205;-48
2022/02/12 03:18:13;;;;;;;10.73;5.57;;;-0.70;99.90;;;;;;5051540;28;20222;-50
2022/02/12 03:20:40;;;;;;;15.80;5.20;;;-0.80;99.90;;;;;;5058140;28;20212;-51
2022/02/12 03:23:07;;;;;;;14.57;4.67;;;-0.70;99.90;;;;;;5070459;28;20295;-48
2022/02/12 03:25:34;;;;;;;10.60;5.30;;;-0.70;99.90;;;;;;5071240;28;20199;-50
2022/02/12 03:28:05;;;;;;;7.90;5.47;;;-0.60;99.90;;;;;;5068283;28;20227;-48
2022/02/12 03:30:33;;;;;;;13.37;5.97;;;-0.60;99.90;;;;;;5067372;28;20297;-53
2022/02/12 03:33:00;;;;;;;13.97;5.00;;;-0.60;99.90;;;;;;5049204;28;20667;-46
2022/02/12 03:35:27;;;;;;;10.97;5.73;;;-0.50;99.90;;;;;;5060577;28;20731;-49
2022/02/12 03:38:05;;;;;;;8.27;5.00;;;-0.60;99.90;;;;;;5062778;28;20331;-48
2022/02/12 03:40:32;;;;;;;11.13;5.17;;;-0.60;99.90;;;;;;5058639;28;20253;-49
2022/02/12 03:42:59;;;;;;;7.67;4.43;;;-0.60;99.90;;;;;;5065276;28;20207;-48
2022/02/12 03:45:27;;;;;;;15.63;5.00;;;-0.60;99.90;;;;;;5060405;28;20697;-51
2022/02/12 03:47:54;;;;;;;8.87;4.57;;;-0.50;99.90;;;;;;5049331;28;20227;-49
2022/02/12 03:50:21;;;;;;;12.53;4.70;;;-0.50;99.90;;;;;;5060689;28;20723;-51
2022/02/12 03:52:49;;;;;;;8.87;4.00;;;-0.60;99.90;;;;;;5061945;28;21008;-48
2022/02/12 03:55:16;;;;;;;9.40;4.40;;;-0.60;99.90;;;;;;5063743;28;20926;-50
2022/02/12 03:57:44;;;;;;;6.77;4.10;;;-0.60;99.90;;;;;;5057618;28;20224;-48
2022/02/12 04:00:12;;;;;;;8.23;4.00;;;-0.60;99.90;;;;;;5066717;28;20206;-50
2022/02/12 04:02:41;;;;;;;9.13;3.80;;;-0.60;99.90;;;;;;5044757;28;21023;-51
2022/02/12 04:05:09;;;;;;;11.43;3.67;;;-0.60;99.90;;;;;;5068360;28;20811;-47
2022/02/12 04:07:38;;;;;;;8.03;4.20;;;-0.70;99.90;;;;;;5058330;28;20217;-45
2022/02/12 04:10:08;;;;;;;7.80;3.20;;;-0.70;99.90;;;;;;5070124;28;20287;-48
2022/02/12 04:12:35;;;;;;;9.13;3.43;;;-0.70;99.90;;;;;;5059415;28;20887;-48
2022/02/12 04:15:01;;;;;;;6.30;3.13;;;-0.60;99.90;;;;;;5064263;28;20209;-50
2022/02/12 04:17:34;;;;;;;8.80;3.40;;;-0.60;99.90;;;;;;5050124;28;20225;-51
2022/02/12 04:20:03;;;;;;;7.47;3.13;;;-0.60;99.90;;;;;;5062670;28;20284;-45
2022/02/12 04:22:32;;;;;;;10.30;3.50;;;-0.60;99.90;;;;;;5063628;28;20330;-48
2022/02/12 04:25:00;;;;;;;6.73;2.90;;;-0.60;99.90;;;;;;5062929;28;20209;-47
2022/02/12 04:27:27;;;;;;;8.40;3.30;;;-0.60;99.90;;;;;;5060838;28;20194;-45
2022/02/12 04:29:57;;;;;;;5.03;3.30;;;-0.60;99.90;;;;;;5062500;28;20327;-45
2022/02/12 04:32:25;;;;;;;6.63;3.73;;;-0.60;99.90;;;;;;5053907;28;20209;-45
2022/02/12 04:34:54;;;;;;;5.67;2.57;;;-0.60;99.90;;;;;;5046267;28;20208;-47
2022/02/12 04:37:23;;;;;;;6.13;3.43;;;-0.60;99.90;;;;;;5065913;28;20225;-49
2022/02/12 04:39:51;;;;;;;10.67;3.50;;;-0.50;99.90;;;;;;5062595;28;20525;-45
2022/02/12 04:42:17;;;;;;;5.83;3.43;;;-0.50;99.90;;;;;;5055237;28;20207;-48
2022/02/12 04:44:48;;;;;;;10.93;3.23;;;-0.50;99.90;;;;;;5056617;28;20239;-50
2022/02/12 04:47:16;;;;;;;8.00;3.27;;;-0.50;99.90;;;;;;5062335;28;20189;-51
2022/02/12 04:49:44;;;;;;;5.70;3.03;;;-0.50;99.90;;;;;;5047053;28;20281;-45
2022/02/12 04:52:13;;;;;;;7.30;2.53;;;-0.50;99.90;;;;;;5065511;28;20194;-49
2022/02/12 04:54:42;;;;;;;8.97;3.60;;;-0.50;99.90;;;;;;5060102;28;20189;-47
2022/02/12 04:57:09;;;;;;;9.17;3.87;;;-0.40;99.90;;;;;;5064394;28;20212;-50
2022/02/12 04:59:37;;;;;;;11.67;3.00;;;-0.40;99.90;;;;;;5054493;28;20232;-44
2022/02/12 05:02:04;;;;;;;5.37;2.70;;;-0.40;99.90;;;;;;5060731;28;20258;-44
2022/02/12 05:04:32;;;;;;;7.53;3.47;;;-0.40;99.90;;;;;;5047284;28;20203;-49
2022/02/12 05:06:59;;;;;;;6.97;3.33;;;-0.40;99.90;;;;;;5062267;28;20237;-46
2022/02/12 05:09:26;;;;;;;4.30;3.10;;;-0.30;99.90;;;;;;5060867;28;20220;-51
2022/02/12 05:11:54;;;;;;;10.70;3.30;;;-0.30;99.90;;;;;;5066710;28;20704;-45
2022/02/12 05:14:21;;;;;;;6.73;3.30;;;-0.30;99.90;;;;;;5055809;28;20215;-48
2022/02/12 05:16:48;;;;;;;7.77;3.20;;;-0.30;99.90;;;;;;5060603;28;20237;-45
2022/02/12 05:19:15;;;;;;;15.80;3.87;;;-0.30;99.90;;;;;;5063321;28;20300;-50
2022/02/12 05:21:42;;;;;;;6.40;3.00;;;-0.30;99.90;;;;;;5046211;28;20202;-47
2022/02/12 05:24:09;;;;;;;9.70;3.77;;;-0.30;99.90;;;;;;5059694;28;20194;-43
2022/02/12 05:26:36;;;;;;;14.33;3.17;;;-0.30;99.90;;;;;;5051440;28;20222;-46
2022/02/12 05:29:04;;;;;;;7.80;3.60;;;-0.30;99.90;;;;;;5065111;28;20246;-47
2022/02/12 05:31:31;;;;;;;6.83;3.40;;;-0.30;99.90;;;;;;5052744;28;20201;-45
2022/02/12 05:33:57;;;;;;;13.97;3.30;;;-0.30;99.90;;;;;;5063274;28;20205;-45
2022/02/12 05:36:25;;;;;;;8.23;3.23;;;-0.30;99.90;;;;;;5049161;28;20745;-48
2022/02/12 05:38:51;;;;;;;9.30;4.40;;;-0.30;99.90;;;;;;5064130;28;20234;-48
2022/02/12 05:41:18;;;;;;;8.40;3.60;;;-0.30;99.90;;;;;;5059868;28;20221;-47
2022/02/12 05:43:45;;;;;;;12.17;3.80;;;-0.40;99.90;;;;;;5057658;28;20325;-46
2022/02/12 05:46:14;;;;;;;10.77;3.80;;;-0.40;99.90;;;;;;5062180;28;20224;-50
2022/02/12 05:48:41;;;;;;;9.80;4.20;;;-0.40;99.90;;;;;;5063237;28;20292;-48
2022/02/12 05:51:08;;;;;;;5.27;3.67;;;-0.40;99.90;;;;;;5059492;28;20214;-50
2022/02/12 05:53:35;;;;;;;8.67;3.63;;;-0.50;99.90;;;;;;5047022;28;20198;-49
2022/02/12 05:56:03;;;;;;;9.53;4.10;;;-0.50;99.90;;;;;;5059993;28;20587;-51
2022/02/12 05:58:30;;;;;;;10.87;4.03;;;-0.50;99.90;;;;;;5048954;28;20218;-50
2022/02/12 06:00:56;;;;;;;8.53;4.43;;;-0.50;99.90;;;;;;5048050;28;20206;-45
2022/02/12 06:03:24;;;;;;;8.23;3.50;;;-0.60;99.90;;;;;;5053438;28;20204;-48
2022/02/12 06:05:51;;;;;;;10.53;4.70;;;-0.60;99.90;;;;;;5052127;28;20209;-46
2022/02/12 06:08:19;;;;;;;11.13;4.23;;;-0.60;99.90;;;;;;5048760;28;20660;-47
2022/02/12 06:10:45;;;;;;;8.73;4.87;;;-0.60;99.90;;;;;;5064630;28;20200;-47
2022/02/12 06:13:13;;;;;;;11.23;4.07;;;-0.60;99.90;;;;;;5065617;28;20208;-47
2022/02/12 06:15:40;;;;;;;13.20;4.73;;;-0.60;99.90;;;;;;5049921;28;20731;-49
2022/02/12 06:18:06;;;;;;;10.80;4.37;;;-0.60;99.90;;;;;;5063648;28;20221;-49
2022/02/12 06:20:36;;;;;;;11.37;4.10;;;-0.70;99.90;;;;;;5063714;28;20658;-50
2022/02/12 06:23:02;;;;;;;5.67;4.40;;;-0.70;99.90;;;;;;5038857;28;20200;-46
2022/02/12 06:25:29;;;;;;;8.80;5.03;;;-0.70;99.90;;;;;;5058832;28;20203;-47
2022/02/12 06:27:57;;;;;;;9.90;4.80;;;-0.70;99.90;;;;;;5060313;28;20832;-48
2022/02/12 06:30:24;;;;;;;9.10;5.43;;;-0.70;99.90;;;;;;5054742;28;20753;-45
2022/02/12 06:32:51;;;;;;;6.57;4.87;;;-0.80;99.90;;;;;;5059731;28;20192;-47
2022/02/12 06:35:18;;;;;;;15.57;5.23;;;-0.80;99.90;;;;;;5060127;28;20522;-46
2022/02/12 06:37:46;;;;;;;12.30;5.47;;;-0.80;99.90;;;;;;5042745;28;20688;-49
2022/02/12 06:40:14;;;;;;;9.17;5.23;;;-0.80;99.90;;;;;;5049840;28;20214;-46
2022/02/12 06:42:42;;;;;;;9.53;5.57;;;-0.80;99.90;;;;;;5060601;28;20217;-47
2022/02/12 06:45:09;;;;;;;14.60;5.50;;;-0.80;99.90;;;;;;5047556;28;20964;-47
2022/02/12 06:47:37;;;;;;;12.27;6.17;;;-0.80;99.90;;;;;;5061737;28;20295;-46
2022/02/12 06:50:05;;;;;;;11.90;5.00;;;-0.90;99.90;;;;;;5059654;28;20215;-51
2022/02/12 06:52:32;;;;;;;11.10;5.53;;;-0.90;99.90;;;;;;5062006;28;20199;-47
2022/02/12 06:55:00;;;;;;;10.97;5.30;;;-0.90;99.90;;;;;;5044820;28;20272;-47
2022/02/12 06:57:26;;;;;;;9.10;5.40;;;-0.90;99.90;;;;;;5057767;28;20211;-49
2022/02/12 06:59:53;;;;;;;11.27;5.00;;;-0.90;99.90;;;;;;5058098;28;20204;-46
2022/02/12 07:02:20;;;;;;;11.80;5.20;;;-0.90;99.90;;;;;;5056584;28;20309;-49
2022/02/12 07:04:47;;;;;;;7.27;4.10;;;-0.90;99.90;;;;;;5069985;28;20252;-46
2022/02/12 07:07:14;;;;;;;9.70;4.77;;;-0.80;99.90;;;;;;5064759;28;20184;-51
2022/02/12 07:09:41;;;;;;;10.83;4.80;;;-0.80;99.90;;;;;;5048159;28;20203;-47
2022/02/12 07:12:10;;;;;;;5.53;4.33;;;-0.80;99.90;;;;;;5050774;28;20604;-44
2022/02/12 07:14:37;;;;;;;8.83;5.07;;;-0.80;99.90;;;;;;5056323;28;20231;-53
2022/02/12 07:17:04;;;;;;;9.60;4.63;;;-0.70;99.90;;;;;;5044532;28;20197;-45
2022/02/12 07:19:32;;;;;;;8.60;5.30;;;-0.70;99.90;;;;;;5060031;28;20224;-47
2022/02/12 07:21:59;;;;;;;11.77;5.03;;;-0.70;99.90;;;;;;5052289;28;20208;-47
2022/02/12 07:24:26;;;;;;;7.93;4.93;;;-0.70;99.90;;;;;;5048870;28;20568;-47
2022/02/12 07:26:53;;;;;;;9.10;4.60;;;-0.70;99.90;;;;;;5051787;28;20238;-49
2022/02/12 07:29:21;;;;;;;13.00;5.80;;;-0.60;99.90;;;;;;5060120;28;20234;-47
2022/02/12 07:31:48;;;;;;;10.57;5.27;;;-0.60;99.90;;;;;;5050516;28;20583;-45
2022/02/12 07:34:15;;;;;;;12.90;5.63;;;-0.60;99.90;;;;;;5067561;28;20211;-45
2022/02/12 07:36:42;;;;;;;11.63;6.40;;;-0.60;99.90;;;;;;5062610;28;20204;-47
2022/02/12 07:39:10;;;;;;;9.23;5.40;;;-0.50;99.90;;;;;;5060366;28;20281;-47
2022/02/12 07:41:36;;;;;;;15.47;5.80;;;-0.40;99.90;;;;;;5050336;28;20200;-43
2022/02/12 07:44:04;;;;;;;11.23;5.43;;;-0.40;99.90;;;;;;5052641;28;20192;-45
2022/02/12 07:46:32;;;;;;;8.43;4.93;;;-0.30;99.90;;;;;;5057059;28;20542;-43
2022/02/12 07:48:59;;;;;;;9.20;4.70;;;-0.20;99.90;;;;;;5059802;28;20293;-43
2022/02/12 07:51:26;;;;;;;12.33;4.87;;;-0.20;99.90;;;;;;5058662;28;20206;-44
2022/02/12 07:53:52;;;;;;;13.57;4.87;;;-0.10;99.90;;;;;;5056283;28;20202;-43
2022/02/12 07:56:19;;;;;;;10.50;6.03;;;-0.10;99.90;;;;;;5040577;28;20214;-44
2022/02/12 07:58:46;;;;;;;8.23;4.17;;;0.00;99.90;;;;;;5053312;28;20337;-43
2022/02/12 08:01:14;;;;;;;11.40;5.07;;;0.00;99.90;;;;;;5054781;28;20314;-46
2022/02/12 08:03:42;;;;;;;12.20;4.77;;;0.10;99.90;;;;;;5056007;28;20209;-45
2022/02/12 08:07:27;;;;;;;10.17;4.53;;;0.20;99.90;;;;;;5058393;28;20201;-47
2022/02/12 08:08:56;;;;;;;6.53;3.70;;;0.30;99.90;;;;;;5058549;28;20675;-43
2022/02/12 08:11:22;;;;;;;11.00;4.30;;;0.40;99.90;;;;;;5060234;28;20212;-42
2022/02/12 08:13:50;;;;;;;11.47;3.80;;;0.40;99.90;;;;;;5048090;28;20201;-46
2022/02/12 08:16:17;;;;;;;5.53;3.40;;;0.50;99.90;;;;;;5055280;28;20210;-45
2022/02/12 08:19:07;;;;;;;15.20;6.10;;;0.60;99.90;;;;;;5044533;28;20239;-46
2022/02/12 08:21:34;;;;;;;9.47;4.23;;;0.70;99.90;;;;;;5050143;28;20224;-44
2022/02/12 08:24:00;;;;;;;9.70;3.17;;;0.80;99.90;;;;;;5061178;28;20203;-43
2022/02/12 08:26:27;;;;;;;3.80;2.93;;;0.90;99.90;;;;;;5037601;28;20710;-46
2022/02/12 08:28:54;;;;;;;7.07;2.60;;;1.00;99.90;;;;;;5052395;28;20214;-44
2022/02/12 08:31:22;;;;;;;8.80;2.23;;;1.20;99.90;;;;;;5055888;28;20200;-43
2022/02/12 08:33:48;;;;;;;6.43;2.27;;;1.30;99.90;;;;;;5061992;28;20205;-44
2022/02/12 08:36:16;;;;;;;7.23;2.53;;;1.40;99.90;;;;;;5054276;28;20662;-43
2022/02/12 08:38:43;;;;;;;9.20;2.10;;;1.60;99.90;;;;;;5054756;28;20221;-43
2022/02/12 08:41:10;;;;;;;9.67;2.37;;;1.70;99.90;;;;;;5054846;28;20213;-43
2022/02/12 08:43:37;;;;;;;11.60;1.90;;;1.80;99.90;;;;;;5036396;28;20309;-43
2022/02/12 08:46:03;;;;;;;9.07;1.97;;;1.90;99.90;;;;;;5059433;28;20217;-43
2022/02/12 08:48:31;;;;;;;9.90;1.87;;;2.10;99.90;;;;;;5050884;28;20213;-42
2022/02/12 08:50:58;;;;;;;8.03;1.97;;;2.20;99.90;;;;;;5057152;28;20210;-44
2022/02/12 08:53:26;;;;;;;8.60;3.07;;;2.40;99.90;;;;;;5052708;28;20230;-45
2022/02/12 08:55:53;;;;;;;4.37;1.57;;;2.70;99.90;;;;;;5068986;28;20195;-44
2022/02/12 08:58:22;;;;;;;5.60;2.37;;;2.80;99.90;;;;;;5037580;28;20618;-47
2022/02/12 09:00:49;;;;;;;9.63;2.20;;;2.90;99.90;;;;;;5062278;28;20279;-46
2022/02/12 09:03:17;;;;;;;9.53;2.07;;;3.00;99.90;;;;;;5062524;28;20198;-49
2022/02/12 09:05:45;;;;;;;6.23;2.00;;;3.10;99.90;;;;;;5053296;28;20198;-49
2022/02/12 09:08:12;;;;;;;3.80;2.00;;;3.10;99.90;;;;;;5058786;28;20215;-49
2022/02/12 09:10:40;;;;;;;8.47;2.40;;;3.10;99.90;;;;;;5064743;28;20235;-48
2022/02/12 09:13:07;;;;;;;3.93;1.70;;;3.10;99.90;;;;;;5052085;28;20211;-48
2022/02/12 09:15:34;;;;;;;6.00;1.90;;;3.10;99.90;;;;;;5054279;28;20207;-51
2022/02/12 09:18:01;;;;;;;4.83;1.63;;;3.20;99.90;;;;;;5064018;28;20210;-52
2022/02/12 09:20:28;;;;;;;8.10;2.17;;;3.30;99.90;;;;;;5058127;28;20201;-50
2022/02/12 09:22:55;;;;;;;2.83;1.83;;;3.30;99.90;;;;;;5060483;28;20219;-47
2022/02/12 09:25:22;;;;;;;6.73;2.73;;;3.30;99.90;;;;;;5067413;28;20202;-46
2022/02/12 09:27:50;;;;;;;10.87;2.03;;;3.40;99.90;;;;;;5060670;28;20852;-48
2022/02/12 09:30:17;;;;;;;10.93;2.53;;;3.40;99.90;;;;;;5029032;28;20229;-49
2022/02/12 09:32:44;;;;;;;6.53;2.50;;;3.50;99.90;;;;;;5067228;28;20197;-46
2022/02/12 09:35:12;;;;;;;6.10;1.87;;;3.50;99.90;;;;;;5052534;28;20202;-52
2022/02/12 09:37:38;;;;;;;10.63;2.23;;;3.50;99.90;;;;;;5063249;28;20313;-48
2022/02/12 09:40:06;;;;;;;3.97;2.70;;;3.60;99.90;;;;;;5055825;28;20221;-48
2022/02/12 09:42:35;;;;;;;6.33;1.90;;;3.60;99.90;;;;;;5063668;28;20299;-45
2022/02/12 09:45:05;;;;;;;6.53;2.13;;;3.70;99.90;;;;;;5045214;28;20215;-47
2022/02/12 09:47:46;;;;;;;4.13;1.63;;;3.70;99.90;;;;;;5057878;28;20187;-45
2022/02/12 09:50:16;;;;;;;5.17;2.37;;;3.70;99.90;;;;;;5061714;28;20941;-48
2022/02/12 09:52:47;;;;;;;5.10;1.90;;;3.60;99.90;;;;;;5071729;28;20558;-47
2022/02/12 09:55:15;;;;;;;5.03;2.47;;;3.60;99.90;;;;;;5057833;28;20210;-47
2022/02/12 09:57:42;;;;;;;7.27;2.30;;;3.60;99.90;;;;;;5065973;28;20222;-51
2022/02/12 10:00:14;;;;;;;8.63;2.57;;;3.60;99.90;;;;;;5048622;28;20215;-52
2022/02/12 10:02:41;;;;;;;9.20;2.53;;;3.70;99.90;;;;;;5054755;28;20289;-48
2022/02/12 10:05:22;;;;;;;5.80;1.40;;;3.70;99.90;;;;;;5061107;28;20194;-52
2022/02/12 10:07:51;;;;;;;3.90;1.47;;;3.80;99.90;;;;;;5052541;28;20218;-52
2022/02/12 10:10:20;;;;;;;2.57;1.83;;;3.90;99.90;;;;;;5055786;28;20229;-45
2022/02/12 10:12:47;;;;;;;6.43;1.80;;;3.90;99.90;;;;;;5066041;28;20632;-45
2022/02/12 10:15:24;;;;;;;4.50;2.00;;;4.00;99.90;;;;;;5048546;28;20201;-49
2022/02/12 10:17:53;;;;;;;9.63;2.57;;;4.10;99.90;;;;;;5058174;28;20226;-45
2022/02/12 10:20:30;;;;;;;7.07;1.80;;;4.10;99.90;;;;;;5060686;28;20214;-47
2022/02/12 10:23:06;;;;;;;10.07;2.10;;;4.10;99.90;;;;;;5059425;28;20209;-50
2022/02/12 10:25:34;;;;;;;7.70;2.10;;;4.30;99.90;;;;;;5052373;28;20477;-46
2022/02/12 10:28:01;;;;;;;6.20;1.90;;;4.40;99.90;;;;;;5063347;28;20226;-44
2022/02/12 10:30:30;;;;;;;8.47;1.97;;;4.60;99.90;;;;;;5045484;28;20222;-46
2022/02/12 10:32:58;;;;;;;5.20;1.57;;;4.50;99.90;;;;;;5064916;28;20206;-52
2022/02/12 10:35:26;;;;;;;3.43;1.70;;;4.40;99.90;;;;;;5055453;28;20211;-44
2022/02/12 10:37:59;;;;;;;6.80;1.47;;;4.40;99.90;;;;;;5060178;28;20222;-48
2022/02/12 10:40:27;;;;;;;5.47;1.60;;;4.50;99.90;;;;;;5056159;28;21088;-47
2022/02/12 10:42:55;;;;;;;3.13;1.40;;;4.50;99.90;;;;;;5066557;28;20199;-46
2022/02/12 10:45:25;;;;;;;4.97;2.17;;;4.50;99.90;;;;;;5061584;28;20937;-46
2022/02/12 10:47:54;;;;;;;6.60;1.80;;;4.60;99.90;;;;;;5049361;28;20296;-46
2022/02/12 10:50:24;;;;;;;5.87;2.10;;;4.60;99.90;;;;;;5055827;28;20997;-47
2022/02/12 10:52:52;;;;;;;3.57;1.27;;;4.60;99.90;;;;;;5063806;28;20210;-46
2022/02/12 10:55:32;;;;;;;5.00;1.67;;;4.60;99.90;;;;;;5056974;28;20209;-49
2022/02/12 10:58:01;;;;;;;7.40;1.80;;;4.70;99.90;;;;;;5058202;28;20230;-48
2022/02/12 11:00:30;;;;;;;3.40;0.93;;;4.70;99.90;;;;;;5062496;28;20869;-46
2022/02/12 11:03:00;;;;;;;6.17;1.50;;;4.80;99.90;;;;;;5049429;28;20198;-46
2022/02/12 11:05:28;;;;;;;2.97;1.27;;;4.80;99.90;;;;;;5056770;28;20204;-46
2022/02/12 11:07:56;;;;;;;4.47;1.33;;;4.90;99.90;;;;;;5072018;28;20544;-47
2022/02/12 11:10:23;;;;;;;4.17;1.23;;;4.90;99.90;;;;;;5048107;28;20199;-49
2022/02/12 11:12:52;;;;;;;4.43;1.40;;;5.00;99.90;;;;;;5057884;28;20647;-45
2022/02/12 11:15:19;;;;;;;3.20;1.47;;;5.10;99.90;;;;;;5059359;28;20225;-49
2022/02/12 11:17:48;;;;;;;1.83;0.90;;;5.10;99.90;;;;;;5053753;28;20585;-47
2022/02/12 11:20:17;;;;;;;4.57;1.60;;;5.10;99.90;;;;;;5037303;28;20313;-50
2022/02/12 11:22:46;;;;;;;5.23;1.60;;;5.20;99.90;;;;;;5063456;28;20194;-46
2022/02/12 11:25:35;;;;;;;7.07;1.53;;;5.20;99.90;;;;;;5048391;28;20559;-47
2022/02/12 11:28:07;;;;;;;5.23;1.40;;;5.30;99.90;;;;;;5041385;28;20223;-52
2022/02/12 11:30:35;;;;;;;3.40;1.77;;;5.30;99.90;;;;;;5054329;28;20203;-53
2022/02/12 11:33:08;;;;;;;5.33;1.50;;;5.30;99.90;;;;;;5043050;28;20201;-49
2022/02/12 11:35:37;;;;;;;7.17;1.47;;;5.40;99.90;;;;;;5048083;28;20234;-48
2022/02/12 11:38:23;;;;;;;6.47;1.33;;;5.40;99.90;;;;;;5045872;28;20218;-49
2022/02/12 11:41:19;;;;;;;4.93;1.40;;;5.50;99.90;;;;;;5058428;28;20576;-52
2022/02/12 11:43:47;;;;;;;7.10;1.60;;;5.50;99.90;;;;;;5061260;28;20208;-51
2022/02/12 11:46:13;;;;;;;6.03;1.30;;;5.50;99.90;;;;;;5068605;28;20322;-48
2022/02/12 11:48:42;;;;;;;1.97;1.00;;;5.50;99.90;;;;;;5062334;28;20293;-46
2022/02/12 11:51:12;;;;;;;5.10;1.50;;;5.50;99.90;;;;;;5034811;28;20206;-45
2022/02/12 11:53:43;;;;;;;2.60;1.37;;;5.50;99.90;;;;;;5054085;28;20198;-45
2022/02/12 11:56:31;;;;;;;3.27;1.33;;;5.50;99.90;;;;;;5047305;28;22902;-46
2022/02/12 11:59:02;;;;;;;4.80;1.40;;;5.60;99.90;;;;;;5056010;28;20218;-47
2022/02/12 12:01:51;;;;;;;5.47;1.47;;;5.60;99.90;;;;;;5049772;28;20203;-48
2022/02/12 12:04:21;;;;;;;2.70;1.23;;;5.70;99.90;;;;;;5051345;28;20191;-48
2022/02/12 12:07:20;;;;;;;4.50;1.10;;;5.70;99.90;;;;;;5040018;28;20256;-49
2022/02/12 12:10:13;;;;;;;6.13;1.80;;;5.70;99.90;;;;;;5057290;28;20198;-50
2022/02/12 12:12:40;;;;;;;7.17;1.20;;;5.80;99.90;;;;;;5057706;28;20202;-46
2022/02/12 12:15:18;;;;;;;3.33;1.43;;;5.80;99.90;;;;;;5052774;28;20195;-45
2022/02/12 12:17:45;;;;;;;5.57;2.13;;;6.00;99.90;;;;;;5057166;28;20221;-52
2022/02/12 12:20:12;;;;;;;4.80;1.50;;;6.00;99.90;;;;;;5043881;28;20231;-48
2022/02/12 12:22:40;;;;;;;5.20;1.60;;;6.00;99.90;;;;;;5068224;28;20197;-51
2022/02/12 12:25:07;;;;;;;6.70;1.37;;;6.00;99.90;;;;;;5051237;28;20190;-47
2022/02/12 12:27:34;;;;;;;4.77;1.87;;;6.00;99.90;;;;;;5057284;28;20198;-50
2022/02/12 12:32:58;;;;;;;3.87;1.60;;;5.90;99.90;;;;;;5057215;28;20187;-48
2022/02/12 12:35:25;;;;;;;4.07;1.40;;;5.90;99.90;;;;;;5066683;28;20234;-51
2022/02/12 12:37:55;;;;;;;5.57;1.77;;;5.90;99.90;;;;;;5044569;28;20224;-47
2022/02/12 12:40:29;;;;;;;7.07;1.70;;;5.80;99.90;;;;;;5065735;28;20289;-45
2022/02/12 12:43:00;;;;;;;5.27;1.03;;;5.90;99.90;;;;;;5050898;28;20667;-49
2022/02/12 12:45:28;;;;;;;10.90;1.67;;;5.80;99.90;;;;;;5042113;28;20199;-44
2022/02/12 12:47:56;;;;;;;3.07;1.77;;;5.90;99.90;;;;;;5063030;28;20272;-49
2022/02/12 12:50:23;;;;;;;5.67;1.53;;;6.00;99.90;;;;;;5047642;28;20201;-48
2022/02/12 12:53:02;;;;;;;8.20;1.80;;;6.10;99.90;;;;;;5047378;28;20210;-50
2022/02/12 12:55:30;;;;;;;4.77;2.07;;;6.10;99.90;;;;;;5056242;28;20186;-45
2022/02/12 12:57:57;;;;;;;6.43;2.17;;;6.10;99.90;;;;;;5053868;28;20238;-48
2022/02/12 13:00:25;;;;;;;7.40;1.87;;;6.10;99.90;;;;;;5049027;28;20218;-50
2022/02/12 13:02:53;;;;;;;6.40;1.73;;;6.10;99.90;;;;;;5053523;28;20198;-48